Time;durP1;ratioP1;P1;durP2;ratioP2;P2;SDS_P1;SDS_P2;PMS_P1;PMS_P2;Temp;Humidity;BMP_temperature;BMP_pressure;BME280_temperature;BME280_humidity;BME280_pressure;Samples;Min_cycle;Max_cycle;Signal;HPM_P1;HPM_P2
2022/03/12 00:00:43;;;;;;;8.87;5.37;;;2.70;69.20;;;;;;5043173;28;20202;-80
2022/03/12 00:03:14;;;;;;;10.40;5.30;;;2.70;69.20;;;;;;5041318;28;20229;-77
2022/03/12 00:05:47;;;;;;;10.27;4.93;;;2.60;69.50;;;;;;5042059;28;20195;-79
2022/03/12 00:08:15;;;;;;;12.43;5.73;;;2.60;69.50;;;;;;5043002;28;20206;-79
2022/03/12 00:10:46;;;;;;;9.97;5.13;;;2.50;69.60;;;;;;5043077;28;20835;-78
2022/03/12 00:13:14;;;;;;;9.87;5.10;;;2.50;69.60;;;;;;5041122;28;20203;-80
2022/03/12 00:15:42;;;;;;;10.10;5.83;;;2.50;69.60;;;;;;5044088;28;20684;-80
2022/03/12 00:18:11;;;;;;;9.33;5.13;;;2.50;69.70;;;;;;5042833;28;20653;-80
2022/03/12 00:20:43;;;;;;;9.27;5.37;;;2.50;70.00;;;;;;5041924;28;20201;-79
2022/03/12 00:23:21;;;;;;;9.43;5.70;;;2.50;70.00;;;;;;5042271;28;20206;-79
2022/03/12 00:25:50;;;;;;;10.70;5.27;;;2.50;70.00;;;;;;5042254;28;20822;-78
2022/03/12 00:28:19;;;;;;;11.03;5.83;;;2.50;70.00;;;;;;5043470;28;20206;-80
2022/03/12 00:30:49;;;;;;;12.03;5.40;;;2.50;69.90;;;;;;5042017;28;20199;-80
2022/03/12 00:33:18;;;;;;;10.60;6.30;;;2.50;69.90;;;;;;5044135;28;20228;-80
2022/03/12 00:35:50;;;;;;;11.90;5.37;;;2.50;69.90;;;;;;5041978;28;20665;-81
2022/03/12 00:38:21;;;;;;;10.17;5.77;;;2.50;70.30;;;;;;5042145;28;20210;-80
2022/03/12 00:40:50;;;;;;;11.40;5.60;;;2.50;70.20;;;;;;5043078;28;20240;-80
2022/03/12 00:43:19;;;;;;;10.37;5.17;;;2.50;70.00;;;;;;5041575;28;20193;-80
2022/03/12 00:45:49;;;;;;;11.35;5.68;;;2.50;69.90;;;;;;5043668;28;20947;-80
2022/03/12 00:48:17;;;;;;;11.20;5.63;;;2.60;69.90;;;;;;5045317;28;20694;-80
2022/03/12 00:51:07;;;;;;;7.97;4.73;;;2.60;69.90;;;;;;5042759;28;20218;-82
2022/03/12 00:53:39;;;;;;;11.40;5.47;;;2.60;69.90;;;;;;5042535;28;20277;-80
2022/03/12 00:56:07;;;;;;;12.07;5.30;;;2.60;70.00;;;;;;5042468;28;20199;-81
2022/03/12 00:58:36;;;;;;;8.50;4.77;;;2.60;70.00;;;;;;5041690;28;21253;-80
2022/03/12 01:01:06;;;;;;;10.27;4.83;;;2.60;69.90;;;;;;5041272;28;20832;-80
2022/03/12 01:03:35;;;;;;;11.07;5.57;;;2.60;69.80;;;;;;5041682;28;20226;-78
2022/03/12 01:06:06;;;;;;;9.33;5.83;;;2.60;69.80;;;;;;5043255;28;20199;-79
2022/03/12 01:08:36;;;;;;;9.47;5.33;;;2.60;69.90;;;;;;5042760;28;20215;-80
2022/03/12 01:11:08;;;;;;;12.10;5.80;;;2.60;70.00;;;;;;5042307;28;20279;-79
2022/03/12 01:13:36;;;;;;;10.40;5.33;;;2.60;69.90;;;;;;5042939;28;20287;-79
2022/03/12 01:16:06;;;;;;;10.87;6.07;;;2.60;69.70;;;;;;5043294;28;20191;-79
2022/03/12 01:18:38;;;;;;;11.13;5.77;;;2.60;69.60;;;;;;5041328;28;20611;-81
2022/03/12 01:21:17;;;;;;;13.67;6.50;;;2.60;69.40;;;;;;5040818;28;20199;-79
2022/03/12 01:23:46;;;;;;;13.03;6.80;;;2.70;69.40;;;;;;5043173;28;20194;-79
2022/03/12 01:26:15;;;;;;;10.87;5.83;;;2.60;69.20;;;;;;5040838;28;20578;-81
2022/03/12 01:28:44;;;;;;;16.33;6.40;;;2.60;69.10;;;;;;5041948;28;20205;-80
2022/03/12 01:31:12;;;;;;;10.83;5.53;;;2.60;69.00;;;;;;5040528;28;20642;-78
2022/03/12 01:33:41;;;;;;;9.07;5.37;;;2.70;69.10;;;;;;5041104;28;20203;-77
2022/03/12 01:36:11;;;;;;;10.30;6.00;;;2.60;68.80;;;;;;5040329;28;20217;-78
2022/03/12 01:38:47;;;;;;;10.60;5.30;;;2.60;68.80;;;;;;5041867;28;20195;-77
2022/03/12 01:41:20;;;;;;;9.67;5.23;;;2.60;68.80;;;;;;5040649;28;20194;-77
2022/03/12 01:43:49;;;;;;;11.23;6.10;;;2.60;68.80;;;;;;5041186;28;20620;-78
2022/03/12 01:46:20;;;;;;;10.67;6.33;;;2.60;68.90;;;;;;5041417;28;20706;-78
2022/03/12 01:48:50;;;;;;;12.13;6.50;;;2.60;68.80;;;;;;5041837;28;20758;-79
2022/03/12 01:51:20;;;;;;;12.50;6.30;;;2.60;69.00;;;;;;5040048;28;20246;-78
2022/03/12 01:53:49;;;;;;;13.43;6.20;;;2.60;68.90;;;;;;5042529;28;20198;-79
2022/03/12 01:56:18;;;;;;;13.37;6.33;;;2.60;69.10;;;;;;5045925;28;20312;-79
2022/03/12 01:58:48;;;;;;;12.57;6.93;;;2.60;69.00;;;;;;5045050;28;20444;-78
2022/03/12 02:01:16;;;;;;;12.90;6.10;;;2.50;69.00;;;;;;5044907;28;20714;-78
2022/03/12 02:03:46;;;;;;;10.70;6.23;;;2.60;69.30;;;;;;5044977;28;20221;-77
2022/03/12 02:06:16;;;;;;;13.03;6.63;;;2.50;69.20;;;;;;5044464;28;20664;-78
2022/03/12 02:08:49;;;;;;;10.83;6.10;;;2.50;69.20;;;;;;5044761;28;20310;-77
2022/03/12 02:11:21;;;;;;;14.60;6.77;;;2.50;69.30;;;;;;5044326;28;20206;-80
2022/03/12 02:13:50;;;;;;;13.07;6.70;;;2.50;69.30;;;;;;5044624;28;20876;-79
2022/03/12 02:16:18;;;;;;;10.47;5.50;;;2.50;69.40;;;;;;5045068;28;20199;-77
2022/03/12 02:18:48;;;;;;;19.30;7.23;;;2.50;69.30;;;;;;5043925;28;20723;-82
2022/03/12 02:21:31;;;;;;;12.83;6.83;;;2.40;69.30;;;;;;5044342;28;20255;-79
2022/03/12 02:24:01;;;;;;;13.20;6.47;;;2.40;69.30;;;;;;5045025;28;20202;-79
2022/03/12 02:26:29;;;;;;;13.40;6.70;;;2.40;69.40;;;;;;5046399;28;20201;-78
2022/03/12 02:28:58;;;;;;;13.80;8.00;;;2.40;69.40;;;;;;5043051;28;20467;-79
2022/03/12 02:31:27;;;;;;;15.63;7.03;;;2.40;69.50;;;;;;5045093;28;20229;-78
2022/03/12 02:34:01;;;;;;;15.27;6.87;;;2.30;69.70;;;;;;5043750;28;20195;-78
2022/03/12 02:36:30;;;;;;;14.80;7.23;;;2.30;69.80;;;;;;5043562;28;20192;-81
2022/03/12 02:39:05;;;;;;;12.53;6.70;;;2.30;69.80;;;;;;5043602;28;20195;-78
2022/03/12 02:41:33;;;;;;;14.07;7.72;;;2.30;69.90;;;;;;5044820;28;20444;-79
2022/03/12 02:44:03;;;;;;;15.23;6.60;;;2.20;70.20;;;;;;5045447;28;20199;-77
2022/03/12 02:46:32;;;;;;;13.50;6.53;;;2.20;70.50;;;;;;5044188;28;20286;-75
2022/03/12 02:49:01;;;;;;;14.47;6.53;;;2.20;70.40;;;;;;5043208;28;20198;-76
2022/03/12 02:51:29;;;;;;;12.40;6.13;;;2.20;70.30;;;;;;5044642;28;20222;-75
2022/03/12 02:53:57;;;;;;;12.73;6.77;;;2.20;70.30;;;;;;5043339;28;20206;-75
2022/03/12 02:56:27;;;;;;;12.50;6.83;;;2.20;70.20;;;;;;5043639;28;20210;-76
2022/03/12 02:58:55;;;;;;;13.73;7.10;;;2.10;70.20;;;;;;5043836;28;20856;-75
2022/03/12 03:01:26;;;;;;;14.23;6.60;;;2.10;70.90;;;;;;5044734;28;20230;-75
2022/03/12 03:03:56;;;;;;;13.07;7.13;;;2.10;70.20;;;;;;5043455;28;20945;-74
2022/03/12 03:06:24;;;;;;;16.10;6.93;;;2.10;70.30;;;;;;5040583;28;20561;-76
2022/03/12 03:08:53;;;;;;;14.33;6.83;;;2.00;70.40;;;;;;5044278;28;20293;-76
2022/03/12 03:11:21;;;;;;;17.33;7.10;;;2.00;70.40;;;;;;5044439;28;20228;-77
2022/03/12 03:13:52;;;;;;;13.80;6.47;;;2.00;70.40;;;;;;5042558;28;20615;-76
2022/03/12 03:16:21;;;;;;;14.30;6.83;;;2.00;70.40;;;;;;5042298;28;20194;-75
2022/03/12 03:18:53;;;;;;;15.00;6.43;;;1.90;70.20;;;;;;5042070;28;20683;-76
2022/03/12 03:21:25;;;;;;;13.13;7.07;;;1.90;70.30;;;;;;5042868;28;20194;-76
2022/03/12 03:23:54;;;;;;;11.90;6.47;;;1.90;70.40;;;;;;5042583;28;20312;-77
2022/03/12 03:26:56;;;;;;;14.10;6.17;;;1.90;70.50;;;;;;5043819;28;20232;-76
2022/03/12 03:29:27;;;;;;;17.83;6.77;;;1.90;70.50;;;;;;5043204;28;20211;-77
2022/03/12 03:31:56;;;;;;;14.10;6.80;;;1.80;70.70;;;;;;5043792;28;20209;-75
2022/03/12 03:34:25;;;;;;;13.80;6.60;;;1.80;70.80;;;;;;5042204;28;20201;-75
2022/03/12 03:36:55;;;;;;;12.53;6.97;;;1.80;70.70;;;;;;5042230;28;20199;-76
2022/03/12 03:39:23;;;;;;;14.50;7.23;;;1.70;70.60;;;;;;5042308;28;20232;-75
2022/03/12 03:41:51;;;;;;;15.53;6.97;;;1.70;70.60;;;;;;5042433;28;20208;-75
2022/03/12 03:44:22;;;;;;;13.67;6.23;;;1.70;70.70;;;;;;5042229;28;20194;-76
2022/03/12 03:46:52;;;;;;;12.90;6.97;;;1.70;70.80;;;;;;5041648;28;20212;-75
2022/03/12 03:49:20;;;;;;;14.43;5.90;;;1.70;71.00;;;;;;5042120;28;20206;-75
2022/03/12 03:51:48;;;;;;;16.83;7.13;;;1.70;70.90;;;;;;5041880;28;20218;-76
2022/03/12 03:54:17;;;;;;;14.33;7.67;;;1.60;71.00;;;;;;5042859;28;20198;-75
2022/03/12 03:56:45;;;;;;;12.27;6.70;;;1.60;71.00;;;;;;5042626;28;20265;-75
2022/03/12 03:59:14;;;;;;;17.27;8.30;;;1.60;71.10;;;;;;5042590;28;20869;-76
2022/03/12 04:01:42;;;;;;;16.77;7.43;;;1.60;71.20;;;;;;5042256;28;20197;-75
2022/03/12 04:04:13;;;;;;;16.97;7.57;;;1.60;71.30;;;;;;5041798;28;20707;-75
2022/03/12 04:06:42;;;;;;;14.43;7.37;;;1.50;71.60;;;;;;5043053;28;20191;-74
2022/03/12 04:09:10;;;;;;;13.73;7.27;;;1.50;71.50;;;;;;5043166;28;20204;-76
2022/03/12 04:11:39;;;;;;;16.47;7.77;;;1.50;71.80;;;;;;5042059;28;20213;-76
2022/03/12 04:14:08;;;;;;;13.67;6.80;;;1.40;71.80;;;;;;5042998;28;20308;-76
2022/03/12 04:16:37;;;;;;;10.27;6.13;;;1.40;71.90;;;;;;5040845;28;20287;-76
2022/03/12 04:19:06;;;;;;;13.67;7.77;;;1.40;72.20;;;;;;5040786;28;20596;-76
2022/03/12 04:21:36;;;;;;;13.60;7.37;;;1.30;72.30;;;;;;5041262;28;20839;-75
2022/03/12 04:24:06;;;;;;;16.83;7.23;;;1.30;72.40;;;;;;5042711;28;20199;-76
2022/03/12 04:26:35;;;;;;;12.40;6.80;;;1.30;72.30;;;;;;5040440;28;20707;-76
2022/03/12 04:29:08;;;;;;;13.93;6.70;;;1.30;72.60;;;;;;5042530;28;20212;-76
2022/03/12 04:31:36;;;;;;;14.50;6.93;;;1.30;72.70;;;;;;5040297;28;20214;-76
2022/03/12 04:34:05;;;;;;;19.02;8.48;;;1.30;72.60;;;;;;5040673;28;20530;-75
2022/03/12 04:36:36;;;;;;;15.27;7.23;;;1.30;73.00;;;;;;5041427;28;20659;-75
2022/03/12 04:39:06;;;;;;;13.17;6.67;;;1.30;73.00;;;;;;5041067;28;20202;-76
2022/03/12 04:41:36;;;;;;;15.57;6.20;;;1.40;73.00;;;;;;5041533;28;20198;-75
2022/03/12 04:44:06;;;;;;;12.90;6.70;;;1.40;73.00;;;;;;5041578;28;20206;-75
2022/03/12 04:46:35;;;;;;;15.10;7.27;;;1.40;73.20;;;;;;5042419;28;20266;-75
2022/03/12 04:49:04;;;;;;;14.60;7.33;;;1.40;73.20;;;;;;5040237;28;20215;-76
2022/03/12 04:51:33;;;;;;;14.33;6.70;;;1.40;73.30;;;;;;5041612;28;20287;-75
2022/03/12 04:54:02;;;;;;;15.50;7.03;;;1.40;73.20;;;;;;5038346;28;20206;-76
2022/03/12 04:56:32;;;;;;;14.17;7.43;;;1.40;73.20;;;;;;5040059;28;20205;-75
2022/03/12 04:59:00;;;;;;;13.83;6.93;;;1.50;73.30;;;;;;5040233;28;20209;-75
2022/03/12 05:01:29;;;;;;;13.47;6.93;;;1.50;73.20;;;;;;5040782;28;20202;-76
2022/03/12 05:03:58;;;;;;;13.80;6.87;;;1.50;73.00;;;;;;5041107;28;21001;-76
2022/03/12 05:06:26;;;;;;;11.47;6.37;;;1.60;73.10;;;;;;5040417;28;20198;-75
2022/03/12 05:08:56;;;;;;;13.60;7.53;;;1.50;73.00;;;;;;5040144;28;20210;-75
2022/03/12 05:11:24;;;;;;;14.37;7.10;;;1.60;73.00;;;;;;5040792;28;20226;-75
2022/03/12 05:13:54;;;;;;;11.67;6.60;;;1.50;72.90;;;;;;5040362;28;20208;-75
2022/03/12 05:16:22;;;;;;;13.10;6.87;;;1.50;72.90;;;;;;5039869;28;20205;-75
2022/03/12 05:18:51;;;;;;;16.83;7.67;;;1.50;72.90;;;;;;5040944;28;20343;-75
2022/03/12 05:21:19;;;;;;;14.77;7.27;;;1.50;72.90;;;;;;5040770;28;20948;-76
2022/03/12 05:23:48;;;;;;;17.67;8.80;;;1.50;73.00;;;;;;5040252;28;20201;-76
2022/03/12 05:26:16;;;;;;;14.67;7.30;;;1.50;73.00;;;;;;5039785;28;20205;-76
2022/03/12 05:28:44;;;;;;;16.27;7.63;;;1.50;73.00;;;;;;5039714;28;20212;-76
2022/03/12 05:31:14;;;;;;;13.07;7.00;;;1.50;73.00;;;;;;5041869;28;20218;-75
2022/03/12 05:33:43;;;;;;;18.10;7.53;;;1.50;72.90;;;;;;5041176;28;20578;-76
2022/03/12 05:36:11;;;;;;;15.57;7.97;;;1.50;73.00;;;;;;5040261;28;20201;-76
2022/03/12 05:38:39;;;;;;;15.60;7.00;;;1.60;73.10;;;;;;5040823;28;20279;-75
2022/03/12 05:41:11;;;;;;;17.30;7.80;;;1.60;73.10;;;;;;5040336;28;20201;-75
2022/03/12 05:43:44;;;;;;;12.87;7.30;;;1.60;73.00;;;;;;5040026;28;20205;-76
2022/03/12 05:46:16;;;;;;;15.97;8.43;;;1.70;73.00;;;;;;5039859;28;20195;-75
2022/03/12 05:48:47;;;;;;;14.83;7.50;;;1.70;72.90;;;;;;5040200;28;20294;-76
2022/03/12 05:51:16;;;;;;;15.80;7.87;;;1.80;72.90;;;;;;5040745;28;20252;-76
2022/03/12 05:53:47;;;;;;;14.30;6.80;;;1.80;72.90;;;;;;5040008;28;20287;-76
2022/03/12 05:56:18;;;;;;;13.80;7.83;;;1.90;72.80;;;;;;5039934;28;20202;-75
2022/03/12 05:58:47;;;;;;;14.60;7.73;;;1.90;72.70;;;;;;5039856;28;20195;-75
2022/03/12 06:01:16;;;;;;;15.53;7.77;;;2.00;72.80;;;;;;5039717;28;20686;-75
2022/03/12 06:03:45;;;;;;;14.67;7.27;;;2.00;73.00;;;;;;5037960;28;20252;-75
2022/03/12 06:06:13;;;;;;;12.20;7.23;;;2.10;72.90;;;;;;5041177;28;20205;-75
2022/03/12 06:08:42;;;;;;;12.13;6.57;;;2.00;73.00;;;;;;5040839;28;20205;-75
2022/03/12 06:11:10;;;;;;;13.50;7.17;;;2.00;73.20;;;;;;5038355;28;20256;-75
2022/03/12 06:13:39;;;;;;;12.60;6.90;;;2.00;73.30;;;;;;5039679;28;20217;-75
2022/03/12 06:16:08;;;;;;;11.83;6.23;;;2.10;73.30;;;;;;5040947;28;20209;-75
2022/03/12 06:18:38;;;;;;;13.43;6.43;;;2.00;73.50;;;;;;5039941;28;20885;-75
2022/03/12 06:21:07;;;;;;;11.40;6.43;;;2.00;73.40;;;;;;5041362;28;20191;-76
2022/03/12 06:23:36;;;;;;;14.10;6.87;;;2.00;73.50;;;;;;5040520;28;20206;-76
2022/03/12 06:26:07;;;;;;;14.37;7.03;;;2.00;73.60;;;;;;5040111;28;20206;-75
2022/03/12 06:28:41;;;;;;;9.43;6.43;;;2.00;73.80;;;;;;5041619;28;20724;-76
2022/03/12 06:31:10;;;;;;;19.63;7.20;;;2.00;74.00;;;;;;5040447;28;20211;-76
2022/03/12 06:33:40;;;;;;;10.83;6.63;;;2.10;74.00;;;;;;5040001;28;20347;-75
2022/03/12 06:36:08;;;;;;;12.87;7.50;;;2.20;74.10;;;;;;5040653;28;20199;-75
2022/03/12 06:38:37;;;;;;;13.77;7.37;;;2.20;74.10;;;;;;5039490;28;20229;-76
2022/03/12 06:41:06;;;;;;;12.30;6.47;;;2.30;74.00;;;;;;5044532;28;20199;-77
2022/03/12 06:43:40;;;;;;;13.60;6.33;;;2.30;73.80;;;;;;5043369;28;20195;-76
2022/03/12 06:46:15;;;;;;;13.27;7.00;;;2.30;73.80;;;;;;5045203;28;20203;-75
2022/03/12 06:48:46;;;;;;;11.07;6.53;;;2.30;73.80;;;;;;5045447;28;20223;-76
2022/03/12 06:51:15;;;;;;;15.23;6.57;;;2.40;73.70;;;;;;5045736;28;20213;-76
2022/03/12 06:53:44;;;;;;;15.13;6.87;;;2.40;73.80;;;;;;5045697;28;20223;-77
2022/03/12 06:56:12;;;;;;;13.82;6.88;;;2.50;73.80;;;;;;5046653;28;20441;-78
2022/03/12 06:58:41;;;;;;;12.50;6.53;;;2.60;73.70;;;;;;5045707;28;20195;-77
2022/03/12 07:01:09;;;;;;;16.83;6.83;;;2.60;73.50;;;;;;5044799;28;20614;-77
2022/03/12 07:03:38;;;;;;;14.37;6.57;;;2.70;73.20;;;;;;5044111;28;20305;-77
2022/03/12 07:06:07;;;;;;;13.07;7.13;;;2.70;73.20;;;;;;5045313;28;20205;-76
2022/03/12 07:08:36;;;;;;;16.13;6.93;;;2.80;73.30;;;;;;5045560;28;20207;-77
2022/03/12 07:11:05;;;;;;;12.10;6.70;;;2.90;73.20;;;;;;5046423;28;20709;-77
2022/03/12 07:13:35;;;;;;;11.03;6.50;;;3.00;73.10;;;;;;5046217;28;20218;-76
2022/03/12 07:16:04;;;;;;;13.10;5.93;;;3.10;72.60;;;;;;5047102;28;20213;-76
2022/03/12 07:18:32;;;;;;;13.63;6.47;;;3.20;71.90;;;;;;5047087;28;20361;-76
2022/03/12 07:21:01;;;;;;;13.33;7.13;;;3.20;71.20;;;;;;5045855;28;20200;-77
2022/03/12 07:23:31;;;;;;;12.53;5.93;;;3.30;70.90;;;;;;5045233;28;20228;-77
2022/03/12 07:25:59;;;;;;;11.73;6.33;;;3.40;70.40;;;;;;5045193;28;20223;-76
2022/03/12 07:28:27;;;;;;;12.70;6.03;;;3.50;70.50;;;;;;5044261;28;20198;-77
2022/03/12 07:30:57;;;;;;;13.23;5.60;;;3.60;69.90;;;;;;5046182;28;20203;-76
2022/03/12 07:33:25;;;;;;;10.90;5.80;;;3.60;68.80;;;;;;5044235;28;20217;-76
2022/03/12 07:35:54;;;;;;;12.80;6.83;;;3.70;68.10;;;;;;5044979;28;20191;-78
2022/03/12 07:38:22;;;;;;;13.90;7.33;;;3.80;68.00;;;;;;5045028;28;20658;-77
2022/03/12 07:40:52;;;;;;;9.63;6.00;;;3.90;67.80;;;;;;5045701;28;20205;-76
2022/03/12 07:43:20;;;;;;;11.10;6.03;;;4.00;67.00;;;;;;5044661;28;20203;-77
2022/03/12 07:45:49;;;;;;;12.53;5.70;;;4.10;66.70;;;;;;5044690;28;20194;-76
2022/03/12 07:48:19;;;;;;;9.67;5.63;;;4.20;65.70;;;;;;5043704;28;20205;-75
2022/03/12 07:51:06;;;;;;;13.48;6.65;;;4.30;66.10;;;;;;5042784;28;21010;-77
2022/03/12 07:53:36;;;;;;;8.30;4.63;;;4.50;65.80;;;;;;5043836;28;20268;-79
2022/03/12 07:56:07;;;;;;;14.07;5.70;;;4.50;64.10;;;;;;5043204;28;20725;-77
2022/03/12 07:58:35;;;;;;;7.17;2.73;;;4.60;63.60;;;;;;5044144;28;20194;-77
2022/03/12 08:01:05;;;;;;;6.87;3.93;;;4.60;59.60;;;;;;5045364;28;20209;-77
2022/03/12 08:03:35;;;;;;;10.37;4.27;;;4.70;58.70;;;;;;5043968;28;20401;-78
2022/03/12 08:06:05;;;;;;;6.47;3.70;;;4.80;58.60;;;;;;5043263;28;20280;-79
2022/03/12 08:08:33;;;;;;;10.87;5.03;;;4.90;58.60;;;;;;5043363;28;20284;-77
2022/03/12 08:13:49;;;;;;;12.33;5.03;;;5.00;58.60;;;;;;5044177;28;20206;-78
2022/03/12 08:16:17;;;;;;;9.50;4.47;;;5.10;57.70;;;;;;5042481;28;20633;-79
2022/03/12 08:18:46;;;;;;;9.67;4.50;;;5.20;58.20;;;;;;5042330;28;20619;-77
2022/03/12 08:21:15;;;;;;;8.10;4.60;;;5.20;56.60;;;;;;5043747;28;20213;-79
2022/03/12 08:23:45;;;;;;;12.43;5.33;;;5.30;56.50;;;;;;5042639;28;20806;-78
2022/03/12 08:26:13;;;;;;;7.13;4.80;;;5.40;56.40;;;;;;5042700;28;20217;-81
2022/03/12 08:28:42;;;;;;;11.60;5.10;;;5.50;56.30;;;;;;5042853;28;20199;-79
2022/03/12 08:31:12;;;;;;;10.43;6.00;;;5.50;56.70;;;;;;5043804;28;20607;-80
2022/03/12 08:33:41;;;;;;;9.73;5.60;;;5.60;56.10;;;;;;5041502;28;20221;-78
2022/03/12 08:36:09;;;;;;;11.60;5.63;;;5.70;56.50;;;;;;5041575;28;20216;-80
2022/03/12 08:38:39;;;;;;;7.87;3.87;;;5.70;56.30;;;;;;5042664;28;20203;-79
2022/03/12 08:41:11;;;;;;;7.00;3.80;;;5.70;54.80;;;;;;5043032;28;20198;-80
2022/03/12 08:43:40;;;;;;;11.57;4.57;;;5.80;54.30;;;;;;5043709;28;20190;-78
2022/03/12 08:46:09;;;;;;;7.20;4.45;;;5.90;53.80;;;;;;5041262;28;20494;-78
2022/03/12 08:48:42;;;;;;;9.97;3.90;;;5.90;52.70;;;;;;5042043;28;20558;-80
2022/03/12 08:51:18;;;;;;;6.33;3.37;;;5.90;52.00;;;;;;5043048;28;20722;-79
2022/03/12 08:53:47;;;;;;;7.17;3.30;;;5.90;52.60;;;;;;5041412;28;20484;-79
2022/03/12 08:56:15;;;;;;;6.77;3.03;;;6.00;52.00;;;;;;5042058;28;20712;-79
2022/03/12 08:58:47;;;;;;;5.10;2.90;;;6.00;50.50;;;;;;5042669;28;20765;-81
2022/03/12 09:01:16;;;;;;;9.17;3.60;;;6.10;49.90;;;;;;5041558;28;20203;-78
2022/03/12 09:03:46;;;;;;;4.53;2.90;;;6.20;50.70;;;;;;5041104;28;20767;-78
2022/03/12 09:06:15;;;;;;;5.97;2.70;;;6.30;50.20;;;;;;5041591;28;20239;-79
2022/03/12 09:08:44;;;;;;;7.10;3.40;;;6.40;50.80;;;;;;5041678;28;20250;-78
2022/03/12 09:11:16;;;;;;;8.00;3.80;;;6.40;49.40;;;;;;5042786;28;20202;-77
2022/03/12 09:13:49;;;;;;;5.90;2.90;;;6.40;49.30;;;;;;5015767;28;20704;-78
2022/03/12 09:16:18;;;;;;;8.00;4.07;;;6.50;49.80;;;;;;5042985;28;20202;-79
2022/03/12 09:18:48;;;;;;;7.03;3.60;;;6.70;50.80;;;;;;5041631;28;20199;-79
2022/03/12 09:21:16;;;;;;;5.53;2.83;;;6.80;50.80;;;;;;5042603;28;20206;-79
2022/03/12 09:23:44;;;;;;;6.53;2.93;;;6.80;49.80;;;;;;5040417;28;20657;-78
2022/03/12 09:26:13;;;;;;;5.47;2.90;;;6.90;49.10;;;;;;5040513;28;20227;-78
2022/03/12 09:28:42;;;;;;;6.17;3.20;;;6.90;48.30;;;;;;5041019;28;20203;-78
2022/03/12 09:31:11;;;;;;;4.93;2.87;;;6.90;48.30;;;;;;5040926;28;20213;-76
2022/03/12 09:33:40;;;;;;;5.77;2.60;;;6.90;48.70;;;;;;5042734;28;20847;-78
2022/03/12 09:36:11;;;;;;;4.83;2.60;;;7.00;48.60;;;;;;5040443;28;20202;-79
2022/03/12 09:38:39;;;;;;;6.10;3.60;;;7.00;48.70;;;;;;5040443;28;20440;-78
2022/03/12 09:41:08;;;;;;;6.10;3.07;;;7.00;48.50;;;;;;5039946;28;20189;-78
2022/03/12 09:43:36;;;;;;;5.10;2.87;;;7.10;48.40;;;;;;5040902;28;20200;-77
2022/03/12 09:46:05;;;;;;;5.43;3.20;;;7.30;48.40;;;;;;5039971;28;20233;-78
2022/03/12 09:48:33;;;;;;;6.17;3.57;;;7.30;48.30;;;;;;5040221;28;20207;-78
2022/03/12 09:51:02;;;;;;;5.67;3.30;;;7.40;48.30;;;;;;5040464;28;20202;-78
2022/03/12 09:53:34;;;;;;;5.83;3.17;;;7.40;48.80;;;;;;5041537;28;20193;-78
2022/03/12 09:56:02;;;;;;;8.20;3.60;;;7.50;48.90;;;;;;5039967;28;20206;-78
2022/03/12 09:58:31;;;;;;;7.10;4.10;;;7.50;48.70;;;;;;5040703;28;20195;-78
2022/03/12 10:00:59;;;;;;;5.07;3.33;;;7.60;48.60;;;;;;5040913;28;20205;-77
2022/03/12 10:03:32;;;;;;;6.23;3.23;;;7.70;47.70;;;;;;5041161;28;20320;-79
2022/03/12 10:06:02;;;;;;;9.97;3.53;;;7.80;47.40;;;;;;5039715;28;20200;-79
2022/03/12 10:08:32;;;;;;;8.33;3.83;;;7.90;47.90;;;;;;5041535;28;20195;-78
2022/03/12 10:11:00;;;;;;;6.30;3.80;;;7.90;48.00;;;;;;5041565;28;20215;-78
2022/03/12 10:13:29;;;;;;;10.50;3.47;;;7.90;48.60;;;;;;5041801;28;20756;-81
2022/03/12 10:15:58;;;;;;;5.93;3.70;;;8.00;48.50;;;;;;5044996;28;20286;-79
2022/03/12 10:18:27;;;;;;;6.07;3.10;;;8.00;48.60;;;;;;5045992;28;20945;-77
2022/03/12 10:20:57;;;;;;;5.03;2.70;;;8.10;48.20;;;;;;5044588;28;20224;-79
2022/03/12 10:23:25;;;;;;;5.60;3.10;;;8.10;46.60;;;;;;5043397;28;20201;-78
2022/03/12 10:25:55;;;;;;;7.63;3.00;;;8.10;46.10;;;;;;5044070;28;20197;-79
2022/03/12 10:28:23;;;;;;;6.77;3.10;;;8.10;46.20;;;;;;5042896;28;20199;-78
2022/03/12 10:30:53;;;;;;;4.23;2.77;;;8.20;46.60;;;;;;5042575;28;20273;-79
2022/03/12 10:33:23;;;;;;;6.87;3.03;;;8.20;47.00;;;;;;5044702;28;20198;-78
2022/03/12 10:35:52;;;;;;;6.93;3.35;;;8.20;47.40;;;;;;5045581;28;20536;-78
2022/03/12 10:38:22;;;;;;;4.43;2.60;;;8.20;46.40;;;;;;5044991;28;20191;-78
2022/03/12 10:40:50;;;;;;;5.27;2.57;;;8.20;45.60;;;;;;5045899;28;20303;-72
2022/03/12 10:43:20;;;;;;;7.00;3.77;;;8.30;45.40;;;;;;5043401;28;20221;-73
2022/03/12 10:45:55;;;;;;;5.67;2.80;;;8.30;45.70;;;;;;5045415;28;20210;-73
2022/03/12 10:48:25;;;;;;;8.50;3.80;;;8.40;45.70;;;;;;5045771;28;20219;-73
2022/03/12 10:50:57;;;;;;;5.97;3.10;;;8.40;45.20;;;;;;5045348;28;20202;-74
2022/03/12 10:53:38;;;;;;;9.52;3.78;;;8.40;45.30;;;;;;5044443;28;20447;-75
2022/03/12 10:56:08;;;;;;;9.37;4.27;;;8.30;45.10;;;;;;5044284;28;20241;-74
2022/03/12 10:58:38;;;;;;;5.13;2.77;;;8.30;44.60;;;;;;5045168;28;20201;-73
2022/03/12 11:01:06;;;;;;;6.57;3.77;;;8.30;45.20;;;;;;5044961;28;20201;-73
2022/03/12 11:03:37;;;;;;;7.57;2.93;;;8.40;45.30;;;;;;5045720;28;20233;-77
2022/03/12 11:06:07;;;;;;;11.03;4.40;;;8.40;45.30;;;;;;5044311;28;20196;-78
2022/03/12 11:08:36;;;;;;;6.50;3.30;;;8.40;45.50;;;;;;5044712;28;20194;-79
2022/03/12 11:11:11;;;;;;;5.77;3.03;;;8.40;45.20;;;;;;5043590;28;20209;-80
2022/03/12 11:13:44;;;;;;;8.47;3.20;;;8.40;44.80;;;;;;5043402;28;21045;-78
2022/03/12 11:16:15;;;;;;;6.03;2.80;;;8.50;45.10;;;;;;5043352;28;20213;-78
2022/03/12 11:19:01;;;;;;;6.27;3.37;;;8.60;46.10;;;;;;5045804;28;20197;-80
2022/03/12 11:21:37;;;;;;;6.03;2.83;;;8.70;45.50;;;;;;5043999;28;20318;-78
2022/03/12 11:24:06;;;;;;;8.73;3.10;;;8.90;45.80;;;;;;5043472;28;20191;-78
2022/03/12 11:26:48;;;;;;;3.73;2.50;;;9.00;45.50;;;;;;5042347;28;20197;-79
2022/03/12 11:29:20;;;;;;;5.37;3.00;;;9.10;44.50;;;;;;5044484;28;20183;-77
2022/03/12 11:31:51;;;;;;;6.77;3.13;;;9.20;44.60;;;;;;5045561;28;20253;-78
2022/03/12 11:34:25;;;;;;;5.83;2.97;;;9.30;44.30;;;;;;5044936;28;20198;-78
2022/03/12 11:37:04;;;;;;;6.47;3.10;;;9.30;44.60;;;;;;5045794;28;20722;-78
2022/03/12 11:39:39;;;;;;;7.70;3.13;;;9.30;44.50;;;;;;5044408;28;20206;-78
2022/03/12 11:42:16;;;;;;;5.40;3.27;;;9.40;44.30;;;;;;5056638;28;20312;-79
2022/03/12 11:44:50;;;;;;;6.47;3.60;;;9.30;44.40;;;;;;5048427;28;20195;-79
2022/03/12 11:47:21;;;;;;;4.83;2.87;;;9.20;43.90;;;;;;5043863;28;20664;-79
2022/03/12 11:49:51;;;;;;;5.00;2.63;;;9.20;43.70;;;;;;5043822;28;20318;-78
2022/03/12 11:52:20;;;;;;;5.07;3.00;;;9.20;43.20;;;;;;5044875;28;20196;-79
2022/03/12 11:54:55;;;;;;;6.63;3.13;;;9.20;43.50;;;;;;5047525;28;20328;-79
2022/03/12 11:57:26;;;;;;;6.27;3.23;;;9.20;43.20;;;;;;5048840;28;20730;-79
2022/03/12 12:00:00;;;;;;;6.27;3.17;;;9.30;43.10;;;;;;5049192;28;20942;-80
2022/03/12 12:02:31;;;;;;;6.70;3.10;;;9.40;43.20;;;;;;5054438;28;20960;-77
2022/03/12 12:05:05;;;;;;;6.50;3.33;;;9.40;43.70;;;;;;5046530;28;20234;-80
2022/03/12 12:07:36;;;;;;;6.97;3.20;;;9.50;43.40;;;;;;5047493;28;20206;-80
2022/03/12 12:10:07;;;;;;;5.17;2.50;;;9.60;43.10;;;;;;5043210;28;20605;-78
2022/03/12 12:12:46;;;;;;;5.93;3.07;;;9.70;42.80;;;;;;5043389;28;20730;-79
2022/03/12 12:15:24;;;;;;;5.00;2.63;;;9.70;42.50;;;;;;5042675;28;20737;-78
2022/03/12 12:17:53;;;;;;;3.90;2.60;;;9.80;42.60;;;;;;5044844;28;20214;-80
2022/03/12 12:20:23;;;;;;;5.47;2.73;;;9.70;42.80;;;;;;5046948;28;20787;-78
2022/03/12 12:22:57;;;;;;;4.20;2.60;;;9.70;42.90;;;;;;5047726;28;20203;-79
2022/03/12 12:25:26;;;;;;;9.67;3.43;;;9.70;42.40;;;;;;5046858;28;20207;-78
2022/03/12 12:27:56;;;;;;;5.00;2.85;;;9.80;42.60;;;;;;5043935;28;20524;-78
2022/03/12 12:30:38;;;;;;;7.07;2.53;;;9.80;41.90;;;;;;5045108;28;20685;-79
2022/03/12 12:33:19;;;;;;;4.53;2.60;;;9.90;41.70;;;;;;5043287;28;20674;-78
2022/03/12 12:35:50;;;;;;;5.77;2.00;;;10.00;41.80;;;;;;5052545;28;20775;-78
2022/03/12 12:38:24;;;;;;;6.20;2.60;;;10.10;42.20;;;;;;5049234;28;20806;-79
2022/03/12 12:40:54;;;;;;;4.30;2.80;;;10.20;41.50;;;;;;5048625;28;20202;-80
2022/03/12 12:43:32;;;;;;;5.17;3.00;;;10.30;41.50;;;;;;5047445;28;20886;-78
2022/03/12 12:46:12;;;;;;;4.70;2.30;;;10.40;41.20;;;;;;5043494;28;20840;-78
2022/03/12 12:48:45;;;;;;;6.40;3.20;;;10.40;40.50;;;;;;5043839;28;20481;-79
2022/03/12 12:51:20;;;;;;;5.00;2.70;;;10.50;40.20;;;;;;5043192;28;20191;-79
2022/03/12 12:53:51;;;;;;;5.87;2.73;;;10.60;40.20;;;;;;5047551;28;21693;-79
2022/03/12 12:56:28;;;;;;;4.03;2.30;;;10.60;39.70;;;;;;5046148;28;20758;-77
2022/03/12 12:59:13;;;;;;;6.40;3.37;;;10.70;39.80;;;;;;5047922;28;20206;-78
2022/03/12 13:01:53;;;;;;;4.83;2.73;;;10.70;39.60;;;;;;5046224;28;20199;-76
2022/03/12 13:04:44;;;;;;;5.40;2.60;;;10.90;39.50;;;;;;5048745;28;20187;-78
2022/03/12 13:07:21;;;;;;;6.43;2.60;;;11.10;39.80;;;;;;5045471;28;20259;-77
2022/03/12 13:10:01;;;;;;;5.97;3.20;;;11.30;39.50;;;;;;5045966;28;20808;-78